createdAt,value
2022-09-04T00:00:00.708Z,8.66
2022-09-04T00:05:20.091Z,8.53
2022-09-04T00:10:34.655Z,8.42
2022-09-04T00:15:43.938Z,8.40
2022-09-04T00:20:54.907Z,8.40
2022-09-04T00:26:08.761Z,8.35
2022-09-04T00:31:29.155Z,8.31
2022-09-04T00:36:40.078Z,8.24
2022-09-04T00:42:01.084Z,8.27
2022-09-04T00:47:34.157Z,8.40
2022-09-04T00:52:58.584Z,8.36
2022-09-04T00:58:24.541Z,8.30
2022-09-04T01:04:00.115Z,8.20
2022-09-04T01:09:34.013Z,8.16
2022-09-04T01:14:49.141Z,8.13
2022-09-04T01:20:08.643Z,8.10
2022-09-04T01:25:30.195Z,8.01
2022-09-04T01:30:49.230Z,7.90
2022-09-04T01:36:05.652Z,7.85
2022-09-04T01:41:18.406Z,7.89
2022-09-04T01:46:44.797Z,7.89
2022-09-04T01:52:02.738Z,7.82
2022-09-04T01:57:23.005Z,7.70
2022-09-04T02:02:37.491Z,7.67
2022-09-04T02:07:49.234Z,7.66
2022-09-04T02:13:08.206Z,7.64
2022-09-04T02:18:31.423Z,7.56
2022-09-04T02:23:45.596Z,7.52
2022-09-04T02:28:58.991Z,7.53
2022-09-04T02:34:13.040Z,7.49
2022-09-04T02:39:31.944Z,7.44
2022-09-04T02:44:47.489Z,7.39
2022-09-04T02:50:03.956Z,7.32
2022-09-04T02:55:30.496Z,7.26
2022-09-04T03:00:44.631Z,7.30
2022-09-04T03:05:56.786Z,7.26
2022-09-04T03:11:09.958Z,7.19
2022-09-04T03:16:24.668Z,7.13
2022-09-04T03:21:35.732Z,7.07
2022-09-04T03:26:45.316Z,7.03
2022-09-04T03:32:00.329Z,6.96
2022-09-04T03:37:19.539Z,6.89
2022-09-04T03:42:34.694Z,6.86
2022-09-04T03:47:49.810Z,6.83
2022-09-04T03:53:03.626Z,6.88
2022-09-04T03:58:19.631Z,6.88
2022-09-04T04:04:00.166Z,6.86
2022-09-04T04:09:29.917Z,6.84
2022-09-04T04:14:52.147Z,6.90
2022-09-04T04:20:10.890Z,7.03
2022-09-04T04:25:29.102Z,7.20
2022-09-04T04:30:45.822Z,7.33
2022-09-04T04:36:00.514Z,7.62
2022-09-04T04:41:30.867Z,8.06
2022-09-04T04:46:54.903Z,8.27
2022-09-04T04:52:26.740Z,8.57
2022-09-04T04:57:41.102Z,10.33
2022-09-04T05:03:00.708Z,10.71
2022-09-04T05:08:15.106Z,10.51
2022-09-04T05:13:30.493Z,10.49
2022-09-04T05:18:44.931Z,10.71
2022-09-04T05:23:58.085Z,11.03
2022-09-04T05:29:10.918Z,11.69
2022-09-04T05:34:27.743Z,14.51
2022-09-04T05:39:42.439Z,18.36
2022-09-04T05:44:58.549Z,21.37
2022-09-04T05:50:26.840Z,23.91
2022-09-04T05:55:54.095Z,25.89
2022-09-04T06:01:13.690Z,27.45
2022-09-04T06:06:26.273Z,28.74
2022-09-04T06:11:49.809Z,29.63
2022-09-04T06:17:15.831Z,30.43
2022-09-04T06:23:03.030Z,31.39
2022-09-04T06:28:31.641Z,32.42
2022-09-04T06:34:00.827Z,33.19
2022-09-04T06:39:31.307Z,33.63
2022-09-04T06:44:49.650Z,33.81
2022-09-04T06:50:21.116Z,34.30
2022-09-04T06:55:35.973Z,34.62
2022-09-04T07:00:53.330Z,35.16
2022-09-04T07:06:09.054Z,35.45
2022-09-04T07:11:32.705Z,35.98
2022-09-04T07:16:45.801Z,36.23
2022-09-04T07:22:05.284Z,36.67
2022-09-04T07:27:17.535Z,37.16
2022-09-04T07:32:29.077Z,37.25
2022-09-04T07:37:41.733Z,37.83
2022-09-04T07:42:53.394Z,37.93
2022-09-04T07:48:12.680Z,38.32
2022-09-04T07:53:32.293Z,38.25
2022-09-04T07:58:56.704Z,38.49
2022-09-04T08:04:25.238Z,38.64
2022-09-04T08:09:52.707Z,38.33
2022-09-04T08:15:14.311Z,38.08
2022-09-04T08:20:42.153Z,38.23
2022-09-04T08:26:00.122Z,38.62
2022-09-04T08:31:14.579Z,39.11
2022-09-04T08:36:32.432Z,39.23
2022-09-04T08:42:08.101Z,39.07
2022-09-04T08:47:45.234Z,38.95
2022-09-04T08:53:26.237Z,38.68
2022-09-04T08:59:11.194Z,38.16
2022-09-04T09:05:09.999Z,37.70
2022-09-04T09:10:36.274Z,37.43
2022-09-04T09:16:19.390Z,37.68
2022-09-04T09:21:40.299Z,37.46
2022-09-04T09:27:00.055Z,37.53
2022-09-04T09:32:36.519Z,37.62
2022-09-04T09:38:07.127Z,36.54
2022-09-04T09:43:36.018Z,35.97
2022-09-04T09:49:19.769Z,35.82
2022-09-04T09:54:50.486Z,35.73
2022-09-04T10:00:21.285Z,36.39
2022-09-04T10:05:59.296Z,36.73
2022-09-04T10:11:26.359Z,36.45
2022-09-04T10:17:01.766Z,35.78
2022-09-04T10:22:33.143Z,32.65
2022-09-04T10:28:39.648Z,30.17
2022-09-04T10:34:06.058Z,30.09
2022-09-04T10:39:41.399Z,30.09
2022-09-04T10:45:20.545Z,29.62
2022-09-04T10:50:35.388Z,27.99
2022-09-04T10:56:02.866Z,26.99
2022-09-04T11:01:55.051Z,26.09
2022-09-04T11:07:28.988Z,25.22
2022-09-04T11:12:52.344Z,25.04
2022-09-04T11:18:38.014Z,26.07
2022-09-04T11:24:33.453Z,26.97
2022-09-04T11:29:55.928Z,26.99
2022-09-04T11:35:52.510Z,27.14
2022-09-04T11:41:29.039Z,27.38
2022-09-04T11:47:08.756Z,26.95
2022-09-04T11:52:36.062Z,25.82
2022-09-04T11:58:03.561Z,25.14
2022-09-04T12:03:39.617Z,24.61
2022-09-04T12:09:18.527Z,24.50
2022-09-04T12:14:43.119Z,24.29
2022-09-04T12:20:24.949Z,23.92
2022-09-04T12:25:44.764Z,23.76
2022-09-04T12:31:07.866Z,24.01
2022-09-04T12:36:48.828Z,23.93
2022-09-04T12:42:03.569Z,23.73
2022-09-04T12:47:22.548Z,23.71
2022-09-04T12:52:51.202Z,23.70
2022-09-04T12:58:10.273Z,24.55
2022-09-04T13:03:26.271Z,25.28
2022-09-04T13:08:46.784Z,25.41
2022-09-04T13:14:06.358Z,25.54
2022-09-04T13:19:20.447Z,25.42
2022-09-04T13:24:44.434Z,25.35
2022-09-04T13:30:03.799Z,25.22
2022-09-04T13:35:22.252Z,24.70
2022-09-04T13:40:44.669Z,23.99
2022-09-04T13:45:54.311Z,23.40
2022-09-04T13:51:13.390Z,23.01
2022-09-04T13:56:26.412Z,22.84
2022-09-04T14:01:36.987Z,22.73
2022-09-04T14:06:44.873Z,22.66
2022-09-04T14:12:12.067Z,22.52
2022-09-04T14:17:27.088Z,22.49
2022-09-04T14:22:45.394Z,22.55
2022-09-04T14:28:03.433Z,22.68
2022-09-04T14:33:24.043Z,23.04
2022-09-04T14:39:05.241Z,23.39
2022-09-04T14:44:31.119Z,23.32
2022-09-04T14:49:47.466Z,23.19
2022-09-04T14:54:57.782Z,23.00
2022-09-04T15:00:14.745Z,22.93
2022-09-04T15:05:27.348Z,22.92
2022-09-04T15:10:49.977Z,22.84
2022-09-04T15:15:59.958Z,22.82
2022-09-04T15:21:11.294Z,22.69
2022-09-04T15:26:25.202Z,22.55
2022-09-04T15:31:35.371Z,22.44
2022-09-04T15:36:41.786Z,22.22
2022-09-04T15:41:50.060Z,22.00
2022-09-04T15:47:06.305Z,21.81
2022-09-04T15:52:30.565Z,21.59
2022-09-04T15:57:51.100Z,21.38
2022-09-04T16:03:07.016Z,21.05
2022-09-04T16:08:23.450Z,20.74
2022-09-04T16:13:58.223Z,20.48
2022-09-04T16:19:15.187Z,20.26
2022-09-04T16:24:29.730Z,20.03
2022-09-04T16:29:38.213Z,19.81
2022-09-04T16:34:51.970Z,19.58
2022-09-04T16:40:12.428Z,19.41
2022-09-04T16:45:24.810Z,19.21
2022-09-04T16:50:39.911Z,18.97
2022-09-04T16:55:56.133Z,18.78
2022-09-04T17:01:14.119Z,18.61
2022-09-04T17:06:27.602Z,18.42
2022-09-04T17:11:42.945Z,18.19
2022-09-04T17:16:58.745Z,17.99
2022-09-04T17:26:28.090Z,17.82
2022-09-04T17:29:07.540Z,17.56
2022-09-04T17:38:02.999Z,17.37
2022-09-04T17:40:46.391Z,17.22
2022-09-04T17:45:10.722Z,17.05
2022-09-04T17:50:19.451Z,16.89
2022-09-04T17:55:26.909Z,16.73
2022-09-04T18:00:49.886Z,16.58
2022-09-04T18:06:03.049Z,16.41
2022-09-04T18:11:18.365Z,16.23
2022-09-04T18:22:25.039Z,16.04
2022-09-04T18:27:33.048Z,15.94
2022-09-04T18:37:06.586Z,15.91
2022-09-04T18:38:16.862Z,15.89
2022-09-04T18:50:20.770Z,15.89
2022-09-04T18:50:53.511Z,15.92
2022-09-04T18:54:37.770Z,15.96
2022-09-04T18:59:53.646Z,15.99
2022-09-04T19:05:18.051Z,16.00
2022-09-04T19:10:27.126Z,16.02
2022-09-04T19:15:59.795Z,16.02
2022-09-04T19:21:30.402Z,16.04
2022-09-04T19:26:42.375Z,16.05
2022-09-04T19:31:54.762Z,16.04
2022-09-04T19:38:06.409Z,16.00
2022-09-04T19:46:03.964Z,15.94
2022-09-04T19:48:18.920Z,15.88
2022-09-04T19:53:46.937Z,15.75
2022-09-04T19:59:03.653Z,15.60
2022-09-04T20:04:20.466Z,15.44
2022-09-04T20:09:33.552Z,15.28
2022-09-04T20:14:45.897Z,15.12
2022-09-04T20:19:56.342Z,14.97
2022-09-04T20:25:24.440Z,14.83
2022-09-04T20:30:32.073Z,14.70
2022-09-04T20:35:44.694Z,14.61
2022-09-04T20:40:56.478Z,14.55
2022-09-04T20:50:20.088Z,14.50
2022-09-04T20:52:54.406Z,14.44
2022-09-04T21:03:12.414Z,14.40
2022-09-04T21:03:35.685Z,14.34
2022-09-04T21:08:40.138Z,14.27
2022-09-04T21:13:50.920Z,14.20
2022-09-04T21:19:29.258Z,14.11
2022-09-04T21:25:00.539Z,14.00
2022-09-04T21:30:12.777Z,13.91
2022-09-04T21:35:24.349Z,13.83
2022-09-04T21:40:55.482Z,13.75
2022-09-04T21:46:20.868Z,13.64
2022-09-04T21:51:56.582Z,13.59
2022-09-04T22:01:25.388Z,13.56
2022-09-04T22:03:35.220Z,13.55
2022-09-04T22:13:33.170Z,13.56
2022-09-04T22:14:30.666Z,13.56
2022-09-04T22:20:15.366Z,13.60
2022-09-04T22:25:39.955Z,13.65
2022-09-04T22:31:09.008Z,13.67
2022-09-04T22:36:50.395Z,13.63
2022-09-04T22:42:47.503Z,13.53
2022-09-04T22:48:15.769Z,13.44
2022-09-04T22:53:40.577Z,13.35
2022-09-04T22:59:25.994Z,13.24
2022-09-04T23:04:51.703Z,13.14
2022-09-04T23:13:46.537Z,13.03
2022-09-04T23:16:05.941Z,12.90
2022-09-04T23:26:37.587Z,12.76
2022-09-04T23:27:28.321Z,12.55
2022-09-04T23:33:03.836Z,12.33
2022-09-04T23:38:44.706Z,12.15
2022-09-04T23:44:47.517Z,11.99
2022-09-04T23:50:17.946Z,11.87
2022-09-04T23:55:56.726Z,11.72
